sensor_id;sensor_type;location;lat;lon;timestamp;pressure;altitude;pressure_sealevel;temperature;humidity
60437;BME280;46289;51.992;4.498;2022-09-03T00:02:32;101190.81;;;17.35;89.14
60437;BME280;46289;51.992;4.498;2022-09-03T00:05:10;101194.38;;;17.32;89.49
60437;BME280;46289;51.992;4.498;2022-09-03T00:07:53;101188.22;;;17.27;89.93
60437;BME280;46289;51.992;4.498;2022-09-03T00:10:29;101185.56;;;17.27;90.16
60437;BME280;46289;51.992;4.498;2022-09-03T00:13:07;101182.06;;;17.22;90.62
60437;BME280;46289;51.992;4.498;2022-09-03T00:15:38;101182.09;;;17.20;90.34
60437;BME280;46289;51.992;4.498;2022-09-03T00:18:13;101181.22;;;17.17;90.98
60437;BME280;46289;51.992;4.498;2022-09-03T00:20:51;101175.06;;;17.16;91.73
60437;BME280;46289;51.992;4.498;2022-09-03T00:23:30;101176.84;;;17.14;91.25
60437;BME280;46289;51.992;4.498;2022-09-03T00:26:15;101164.50;;;17.10;91.47
60437;BME280;46289;51.992;4.498;2022-09-03T00:28:53;101175.13;;;17.09;91.53
60437;BME280;46289;51.992;4.498;2022-09-03T00:31:29;101157.41;;;17.12;91.73
60437;BME280;46289;51.992;4.498;2022-09-03T00:34:10;101167.16;;;17.12;91.97
60437;BME280;46289;51.992;4.498;2022-09-03T00:36:44;101160.09;;;17.09;91.71
60437;BME280;46289;51.992;4.498;2022-09-03T00:39:19;101163.63;;;17.08;92.23
60437;BME280;46289;51.992;4.498;2022-09-03T00:41:59;101174.22;;;17.10;92.30
60437;BME280;46289;51.992;4.498;2022-09-03T00:44:47;101175.09;;;17.10;92.09
60437;BME280;46289;51.992;4.498;2022-09-03T00:47:31;101172.47;;;17.09;92.90
60437;BME280;46289;51.992;4.498;2022-09-03T00:50:10;101183.94;;;17.09;92.61
60437;BME280;46289;51.992;4.498;2022-09-03T00:52:47;101178.59;;;17.15;92.29
60437;BME280;46289;51.992;4.498;2022-09-03T00:55:33;101174.16;;;17.17;92.27
60437;BME280;46289;51.992;4.498;2022-09-03T00:58:23;101175.84;;;17.27;91.45
60437;BME280;46289;51.992;4.498;2022-09-03T01:00:58;101167.03;;;17.25;91.03
60437;BME280;46289;51.992;4.498;2022-09-03T01:03:38;101174.94;;;17.31;91.27
60437;BME280;46289;51.992;4.498;2022-09-03T01:06:16;101180.25;;;17.30;91.05
60437;BME280;46289;51.992;4.498;2022-09-03T01:09:02;101178.47;;;17.30;91.16
60437;BME280;46289;51.992;4.498;2022-09-03T01:11:48;101178.44;;;17.33;90.76
60437;BME280;46289;51.992;4.498;2022-09-03T01:14:30;101180.25;;;17.30;91.38
60437;BME280;46289;51.992;4.498;2022-09-03T01:17:12;101180.22;;;17.31;90.26
60437;BME280;46289;51.992;4.498;2022-09-03T01:19:59;101185.56;;;17.28;90.50
60437;BME280;46289;51.992;4.498;2022-09-03T01:22:57;101183.75;;;17.33;91.09
60437;BME280;46289;51.992;4.498;2022-09-03T01:25:49;101182.00;;;17.29;91.36
60437;BME280;46289;51.992;4.498;2022-09-03T01:28:29;101188.25;;;17.24;91.80
60437;BME280;46289;51.992;4.498;2022-09-03T01:31:15;101196.19;;;17.25;91.82
60437;BME280;46289;51.992;4.498;2022-09-03T01:33:53;101184.69;;;17.26;91.61
60437;BME280;46289;51.992;4.498;2022-09-03T01:36:32;101185.59;;;17.25;91.99
60437;BME280;46289;51.992;4.498;2022-09-03T01:39:11;101187.38;;;17.23;92.21
60437;BME280;46289;51.992;4.498;2022-09-03T01:41:50;101185.63;;;17.21;92.29
60437;BME280;46289;51.992;4.498;2022-09-03T01:45:00;101187.41;;;17.17;92.52
60437;BME280;46289;51.992;4.498;2022-09-03T01:47:46;101185.66;;;17.16;92.76
60437;BME280;46289;51.992;4.498;2022-09-03T01:50:30;101184.75;;;17.17;92.90
60437;BME280;46289;51.992;4.498;2022-09-03T01:53:12;101179.44;;;17.19;91.94
60437;BME280;46289;51.992;4.498;2022-09-03T01:56:05;101183.91;;;17.15;92.72
60437;BME280;46289;51.992;4.498;2022-09-03T01:58:41;101177.75;;;17.12;93.77
60437;BME280;46289;51.992;4.498;2022-09-03T02:01:16;101180.34;;;17.16;92.56
60437;BME280;46289;51.992;4.498;2022-09-03T02:03:47;101173.28;;;17.18;92.42
60437;BME280;46289;51.992;4.498;2022-09-03T02:06:24;101182.16;;;17.11;92.49
60437;BME280;46289;51.992;4.498;2022-09-03T02:09:00;101173.31;;;17.12;92.53
60437;BME280;46289;51.992;4.498;2022-09-03T02:11:36;101168.06;;;17.06;93.27
60437;BME280;46289;51.992;4.498;2022-09-03T02:14:07;101171.63;;;17.02;93.56
60437;BME280;46289;51.992;4.498;2022-09-03T02:16:39;101169.00;;;17.00;93.40
60437;BME280;46289;51.992;4.498;2022-09-03T02:19:11;101171.72;;;16.93;94.31
60437;BME280;46289;51.992;4.498;2022-09-03T02:21:46;101166.41;;;16.91;94.09
60437;BME280;46289;51.992;4.498;2022-09-03T02:24:16;101166.44;;;16.88;94.68
60437;BME280;46289;51.992;4.498;2022-09-03T02:26:46;101168.19;;;16.91;93.97
60437;BME280;46289;51.992;4.498;2022-09-03T02:29:16;101165.56;;;16.86;94.54
60437;BME280;46289;51.992;4.498;2022-09-03T02:31:49;101162.97;;;16.80;95.25
60437;BME280;46289;51.992;4.498;2022-09-03T02:34:20;101159.47;;;16.74;95.85
60437;BME280;46289;51.992;4.498;2022-09-03T02:36:50;101156.84;;;16.71;96.12
60437;BME280;46289;51.992;4.498;2022-09-03T02:39:20;101162.19;;;16.66;95.73
60437;BME280;46289;51.992;4.498;2022-09-03T02:41:53;101168.41;;;16.57;96.63
60437;BME280;46289;51.992;4.498;2022-09-03T02:44:28;101165.78;;;16.54;96.91
60437;BME280;46289;51.992;4.498;2022-09-03T02:47:09;101168.47;;;16.48;97.36
60437;BME280;46289;51.992;4.498;2022-09-03T02:49:39;101171.13;;;16.45;97.30
60437;BME280;46289;51.992;4.498;2022-09-03T02:52:09;101161.47;;;16.38;98.25
60437;BME280;46289;51.992;4.498;2022-09-03T02:54:39;101161.47;;;16.35;98.44
60437;BME280;46289;51.992;4.498;2022-09-03T02:57:13;101161.50;;;16.29;98.83
60437;BME280;46289;51.992;4.498;2022-09-03T02:59:53;101160.66;;;16.22;99.45
60437;BME280;46289;51.992;4.498;2022-09-03T03:02:25;101153.63;;;16.15;100.00
60437;BME280;46289;51.992;4.498;2022-09-03T03:04:56;101151.00;;;16.14;100.00
60437;BME280;46289;51.992;4.498;2022-09-03T03:07:32;101152.78;;;16.09;100.00
60437;BME280;46289;51.992;4.498;2022-09-03T03:10:06;101154.53;;;16.10;100.00
60437;BME280;46289;51.992;4.498;2022-09-03T03:12:39;101166.91;;;16.03;100.00
60437;BME280;46289;51.992;4.498;2022-09-03T03:15:09;101161.66;;;15.95;100.00
60437;BME280;46289;51.992;4.498;2022-09-03T03:17:41;101165.19;;;15.96;100.00
60437;BME280;46289;51.992;4.498;2022-09-03T03:20:11;101153.75;;;15.86;100.00
60437;BME280;46289;51.992;4.498;2022-09-03T03:22:41;101157.28;;;15.82;100.00
60437;BME280;46289;51.992;4.498;2022-09-03T03:25:11;101155.53;;;15.80;100.00
60437;BME280;46289;51.992;4.498;2022-09-03T03:27:42;101154.66;;;15.76;100.00
60437;BME280;46289;51.992;4.498;2022-09-03T03:30:12;101152.91;;;15.77;100.00
60437;BME280;46289;51.992;4.498;2022-09-03T03:32:45;101161.72;;;15.71;100.00
60437;BME280;46289;51.992;4.498;2022-09-03T03:35:15;101157.31;;;15.70;100.00
60437;BME280;46289;51.992;4.498;2022-09-03T03:37:45;101151.19;;;15.62;100.00
60437;BME280;46289;51.992;4.498;2022-09-03T03:40:15;101159.16;;;15.59;100.00
60437;BME280;46289;51.992;4.498;2022-09-03T03:42:45;101153.84;;;15.56;100.00
60437;BME280;46289;51.992;4.498;2022-09-03T03:45:16;101153.84;;;15.56;100.00
60437;BME280;46289;51.992;4.498;2022-09-03T03:47:49;101159.13;;;15.56;100.00
60437;BME280;46289;51.992;4.498;2022-09-03T03:50:19;101157.34;;;15.55;100.00
60437;BME280;46289;51.992;4.498;2022-09-03T03:52:49;101162.66;;;15.52;100.00
60437;BME280;46289;51.992;4.498;2022-09-03T03:55:19;101159.09;;;15.60;100.00
60437;BME280;46289;51.992;4.498;2022-09-03T03:57:52;101164.41;;;15.56;100.00
60437;BME280;46289;51.992;4.498;2022-09-03T04:00:22;101168.81;;;15.51;100.00
60437;BME280;46289;51.992;4.498;2022-09-03T04:02:55;101170.59;;;15.52;100.00
60437;BME280;46289;51.992;4.498;2022-09-03T04:05:28;101170.59;;;15.49;100.00
60437;BME280;46289;51.992;4.498;2022-09-03T04:08:01;101168.81;;;15.48;100.00
60437;BME280;46289;51.992;4.498;2022-09-03T04:10:37;101163.53;;;15.48;100.00
60437;BME280;46289;51.992;4.498;2022-09-03T04:13:06;101170.59;;;15.47;100.00
60437;BME280;46289;51.992;4.498;2022-09-03T04:15:37;101161.78;;;15.44;100.00
60437;BME280;46289;51.992;4.498;2022-09-03T04:18:11;101165.31;;;15.43;100.00
60437;BME280;46289;51.992;4.498;2022-09-03T04:20:40;101165.31;;;15.46;100.00
60437;BME280;46289;51.992;4.498;2022-09-03T04:23:11;101158.25;;;15.51;100.00
60437;BME280;46289;51.992;4.498;2022-09-03T04:25:41;101160.91;;;15.45;100.00
60437;BME280;46289;51.992;4.498;2022-09-03T04:28:11;101158.25;;;15.38;100.00
60437;BME280;46289;51.992;4.498;2022-09-03T04:30:41;101151.22;;;15.36;100.00
60437;BME280;46289;51.992;4.498;2022-09-03T04:33:17;101157.38;;;15.38;100.00
60437;BME280;46289;51.992;4.498;2022-09-03T04:35:48;101157.41;;;15.33;100.00
60437;BME280;46289;51.992;4.498;2022-09-03T04:38:18;101154.75;;;15.27;100.00
60437;BME280;46289;51.992;4.498;2022-09-03T04:40:51;101153.00;;;15.29;100.00
60437;BME280;46289;51.992;4.498;2022-09-03T04:43:20;101150.34;;;15.25;100.00
60437;BME280;46289;51.992;4.498;2022-09-03T04:45:50;101152.13;;;15.24;100.00
60437;BME280;46289;51.992;4.498;2022-09-03T04:48:23;101154.75;;;15.18;100.00
60437;BME280;46289;51.992;4.498;2022-09-03T04:50:53;101152.13;;;15.15;100.00
60437;BME280;46289;51.992;4.498;2022-09-03T04:53:27;101153.00;;;15.14;100.00
60437;BME280;46289;51.992;4.498;2022-09-03T04:55:57;101155.66;;;15.11;100.00
60437;BME280;46289;51.992;4.498;2022-09-03T04:58:27;101157.41;;;15.04;100.00
60437;BME280;46289;51.992;4.498;2022-09-03T05:00:57;101151.25;;;15.07;100.00
60437;BME280;46289;51.992;4.498;2022-09-03T05:03:31;101157.41;;;15.01;100.00
60437;BME280;46289;51.992;4.498;2022-09-03T05:06:05;101151.25;;;15.02;100.00
60437;BME280;46289;51.992;4.498;2022-09-03T05:08:38;101153.00;;;15.00;100.00
60437;BME280;46289;51.992;4.498;2022-09-03T05:11:09;101156.53;;;15.01;100.00
60437;BME280;46289;51.992;4.498;2022-09-03T05:13:39;101153.88;;;15.01;100.00
60437;BME280;46289;51.992;4.498;2022-09-03T05:16:10;101150.38;;;14.97;100.00
60437;BME280;46289;51.992;4.498;2022-09-03T05:18:43;101158.28;;;14.96;100.00
60437;BME280;46289;51.992;4.498;2022-09-03T05:21:15;101151.25;;;14.98;100.00
60437;BME280;46289;51.992;4.498;2022-09-03T05:23:47;101159.16;;;15.01;100.00
60437;BME280;46289;51.992;4.498;2022-09-03T05:26:18;101158.28;;;15.05;100.00
60437;BME280;46289;51.992;4.498;2022-09-03T05:28:52;101158.28;;;15.02;100.00
60437;BME280;46289;51.992;4.498;2022-09-03T05:31:25;101163.56;;;15.14;100.00
60437;BME280;46289;51.992;4.498;2022-09-03T05:34:01;101150.38;;;15.11;100.00
60437;BME280;46289;51.992;4.498;2022-09-03T05:36:37;101155.66;;;15.16;100.00
60437;BME280;46289;51.992;4.498;2022-09-03T05:39:06;101160.94;;;15.20;100.00
60437;BME280;46289;51.992;4.498;2022-09-03T05:41:36;101157.41;;;15.29;100.00
60437;BME280;46289;51.992;4.498;2022-09-03T05:44:06;101162.69;;;15.32;100.00
60437;BME280;46289;51.992;4.498;2022-09-03T05:46:36;101154.75;;;15.36;100.00
60437;BME280;46289;51.992;4.498;2022-09-03T05:49:08;101162.66;;;15.44;100.00
60437;BME280;46289;51.992;4.498;2022-09-03T05:51:38;101156.50;;;15.50;100.00
60437;BME280;46289;51.992;4.498;2022-09-03T05:54:09;101164.44;;;15.57;100.00
60437;BME280;46289;51.992;4.498;2022-09-03T05:56:39;101167.03;;;15.68;100.00
60437;BME280;46289;51.992;4.498;2022-09-03T05:59:11;101159.94;;;15.79;100.00
60437;BME280;46289;51.992;4.498;2022-09-03T06:01:42;101159.94;;;15.85;100.00
60437;BME280;46289;51.992;4.498;2022-09-03T06:04:20;101161.69;;;15.89;100.00
60437;BME280;46289;51.992;4.498;2022-09-03T06:06:50;101169.59;;;15.95;100.00
60437;BME280;46289;51.992;4.498;2022-09-03T06:09:20;101172.19;;;16.08;100.00
60437;BME280;46289;51.992;4.498;2022-09-03T06:11:51;101173.91;;;16.21;100.00
60437;BME280;46289;51.992;4.498;2022-09-03T06:14:23;101168.56;;;16.33;100.00
60437;BME280;46289;51.992;4.498;2022-09-03T06:16:54;101172.06;;;16.35;100.00
60437;BME280;46289;51.992;4.498;2022-09-03T06:19:30;101167.59;;;16.49;100.00
60437;BME280;46289;51.992;4.498;2022-09-03T06:22:06;101170.13;;;16.64;100.00
60437;BME280;46289;51.992;4.498;2022-09-03T06:24:36;101173.69;;;16.63;100.00
60437;BME280;46289;51.992;4.498;2022-09-03T06:27:06;101173.66;;;16.68;100.00
60437;BME280;46289;51.992;4.498;2022-09-03T06:29:36;101177.09;;;16.81;100.00
60437;BME280;46289;51.992;4.498;2022-09-03T06:32:06;101169.09;;;16.87;98.97
60437;BME280;46289;51.992;4.498;2022-09-03T06:34:38;101175.22;;;16.96;97.86
60437;BME280;46289;51.992;4.498;2022-09-03T06:37:08;101176.03;;;17.06;97.75
60437;BME280;46289;51.992;4.498;2022-09-03T06:39:38;101170.56;;;17.26;95.84
60437;BME280;46289;51.992;4.498;2022-09-03T06:42:08;101176.63;;;17.37;95.82
60437;BME280;46289;51.992;4.498;2022-09-03T06:44:38;101180.13;;;17.44;94.78
60437;BME280;46289;51.992;4.498;2022-09-03T06:47:08;101180.91;;;17.53;91.87
60437;BME280;46289;51.992;4.498;2022-09-03T06:49:40;101178.94;;;17.74;92.50
60437;BME280;46289;51.992;4.498;2022-09-03T06:52:11;101178.81;;;17.83;90.91
60437;BME280;46289;51.992;4.498;2022-09-03T06:54:41;101185.63;;;18.07;90.29
60437;BME280;46289;51.992;4.498;2022-09-03T06:57:11;101179.22;;;18.23;88.94
60437;BME280;46289;51.992;4.498;2022-09-03T06:59:41;101180.94;;;18.28;87.18
60437;BME280;46289;51.992;4.498;2022-09-03T07:02:11;101184.31;;;18.41;87.08
60437;BME280;46289;51.992;4.498;2022-09-03T07:04:44;101185.88;;;18.56;86.82
60437;BME280;46289;51.992;4.498;2022-09-03T07:07:16;101187.50;;;18.68;87.08
60437;BME280;46289;51.992;4.498;2022-09-03T07:09:45;101187.31;;;18.80;85.43
60437;BME280;46289;51.992;4.498;2022-09-03T07:12:15;101190.69;;;18.91;84.87
60437;BME280;46289;51.992;4.498;2022-09-03T07:14:45;101190.38;;;19.11;83.72
60437;BME280;46289;51.992;4.498;2022-09-03T07:17:16;101188.59;;;19.10;81.73
60437;BME280;46289;51.992;4.498;2022-09-03T07:19:49;101183.16;;;19.17;81.66
60437;BME280;46289;51.992;4.498;2022-09-03T07:22:19;101194.34;;;19.38;81.77
60437;BME280;46289;51.992;4.498;2022-09-03T07:24:56;101180.63;;;19.62;80.73
60437;BME280;46289;51.992;4.498;2022-09-03T07:27:28;101196.94;;;19.41;79.62
60437;BME280;46289;51.992;4.498;2022-09-03T07:30:01;101185.13;;;19.58;79.37
60437;BME280;46289;51.992;4.498;2022-09-03T07:32:38;101188.09;;;19.88;78.83
60437;BME280;46289;51.992;4.498;2022-09-03T07:35:11;101187.72;;;20.06;78.00
60437;BME280;46289;51.992;4.498;2022-09-03T07:37:41;101182.34;;;20.09;77.81
60437;BME280;46289;51.992;4.498;2022-09-03T07:40:11;101181.19;;;20.22;76.55
60437;BME280;46289;51.992;4.498;2022-09-03T07:42:45;101179.09;;;20.37;75.02
60437;BME280;46289;51.992;4.498;2022-09-03T07:45:20;101180.97;;;20.33;74.37
60437;BME280;46289;51.992;4.498;2022-09-03T07:47:52;101180.72;;;20.45;73.28
60437;BME280;46289;51.992;4.498;2022-09-03T07:50:25;101180.28;;;20.65;73.46
60437;BME280;46289;51.992;4.498;2022-09-03T07:52:56;101192.44;;;20.77;73.21
60437;BME280;46289;51.992;4.498;2022-09-03T07:55:27;101180.69;;;20.84;71.49
60437;BME280;46289;51.992;4.498;2022-09-03T07:57:57;101193.28;;;21.14;71.54
60437;BME280;46289;51.992;4.498;2022-09-03T08:00:28;101191.34;;;21.23;69.99
60437;BME280;46289;51.992;4.498;2022-09-03T08:03:03;101196.69;;;21.23;70.53
60437;BME280;46289;51.992;4.498;2022-09-03T08:05:39;101197.06;;;21.43;69.31
60437;BME280;46289;51.992;4.498;2022-09-03T08:08:08;101193.78;;;21.66;68.34
60437;BME280;46289;51.992;4.498;2022-09-03T08:11:10;101194.84;;;21.91;66.39
60437;BME280;46289;51.992;4.498;2022-09-03T08:13:41;101204.06;;;21.47;67.43
60437;BME280;46289;51.992;4.498;2022-09-03T08:16:12;101211.03;;;21.15;69.82
60437;BME280;46289;51.992;4.498;2022-09-03T08:18:44;101214.13;;;21.36;69.69
60437;BME280;46289;51.992;4.498;2022-09-03T08:21:19;101214.28;;;21.30;69.87
60437;BME280;46289;51.992;4.498;2022-09-03T08:23:50;101217.16;;;21.56;69.49
60437;BME280;46289;51.992;4.498;2022-09-03T08:26:21;101220.69;;;21.58;68.34
60437;BME280;46289;51.992;4.498;2022-09-03T08:28:51;101218.91;;;21.57;69.04
60437;BME280;46289;51.992;4.498;2022-09-03T08:31:22;101221.88;;;21.46;69.37
60437;BME280;46289;51.992;4.498;2022-09-03T08:33:55;101214.25;;;21.65;68.98
60437;BME280;46289;51.992;4.498;2022-09-03T08:36:29;101213.09;;;21.75;69.32
60437;BME280;46289;51.992;4.498;2022-09-03T08:39:07;101212.22;;;22.07;68.14
60437;BME280;46289;51.992;4.498;2022-09-03T08:41:52;101206.94;;;22.35;66.29
60437;BME280;46289;51.992;4.498;2022-09-03T08:44:36;101220.72;;;22.22;66.24
60437;BME280;46289;51.992;4.498;2022-09-03T08:47:15;101213.75;;;22.75;65.33
60437;BME280;46289;51.992;4.498;2022-09-03T08:49:49;101209.91;;;22.85;63.83
60437;BME280;46289;51.992;4.498;2022-09-03T08:52:28;101205.31;;;22.89;63.19
60437;BME280;46289;51.992;4.498;2022-09-03T08:55:18;101212.25;;;23.22;61.71
60437;BME280;46289;51.992;4.498;2022-09-03T08:57:55;101205.19;;;23.20;61.66
60437;BME280;46289;51.992;4.498;2022-09-03T09:00:41;101213.47;;;23.38;60.62
60437;BME280;46289;51.992;4.498;2022-09-03T09:03:31;101211.88;;;23.33;60.31
60437;BME280;46289;51.992;4.498;2022-09-03T09:06:09;101214.09;;;23.46;58.86
60437;BME280;46289;51.992;4.498;2022-09-03T09:08:49;101213.53;;;23.37;58.18
60437;BME280;46289;51.992;4.498;2022-09-03T09:11:29;101215.47;;;23.60;57.90
60437;BME280;46289;51.992;4.498;2022-09-03T09:14:10;101218.91;;;23.63;57.20
60437;BME280;46289;51.992;4.498;2022-09-03T09:16:46;101220.00;;;23.83;57.35
60437;BME280;46289;51.992;4.498;2022-09-03T09:19:31;101218.88;;;23.90;57.52
60437;BME280;46289;51.992;4.498;2022-09-03T09:22:09;101222.59;;;23.86;57.43
60437;BME280;46289;51.992;4.498;2022-09-03T09:24:44;101225.59;;;24.00;58.16
60437;BME280;46289;51.992;4.498;2022-09-03T09:27:16;101224.03;;;23.94;57.89
60437;BME280;46289;51.992;4.498;2022-09-03T09:29:48;101233.03;;;24.17;56.60
60437;BME280;46289;51.992;4.498;2022-09-03T09:32:18;101226.25;;;24.31;56.21
60437;BME280;46289;51.992;4.498;2022-09-03T09:34:49;101219.22;;;24.29;56.79
60437;BME280;46289;51.992;4.498;2022-09-03T09:37:20;101223.81;;;24.72;57.03
60437;BME280;46289;51.992;4.498;2022-09-03T09:39:57;101232.19;;;24.86;56.27
60437;BME280;46289;51.992;4.498;2022-09-03T09:42:31;101223.16;;;24.89;55.47
60437;BME280;46289;51.992;4.498;2022-09-03T09:45:08;101228.41;;;24.68;54.48
60437;BME280;46289;51.992;4.498;2022-09-03T09:47:38;101217.91;;;25.07;54.24
60437;BME280;46289;51.992;4.498;2022-09-03T09:50:16;101217.41;;;24.98;53.86
60437;BME280;46289;51.992;4.498;2022-09-03T09:52:59;101217.03;;;25.07;53.57
60437;BME280;46289;51.992;4.498;2022-09-03T09:55:48;101215.41;;;25.25;54.10
60437;BME280;46289;51.992;4.498;2022-09-03T09:58:19;101200.03;;;25.28;54.63
60437;BME280;46289;51.992;4.498;2022-09-03T10:00:57;101204.84;;;25.20;54.24
60437;BME280;46289;51.992;4.498;2022-09-03T10:03:32;101209.91;;;25.28;52.72
60437;BME280;46289;51.992;4.498;2022-09-03T10:06:08;101206.50;;;25.45;52.67
60437;BME280;46289;51.992;4.498;2022-09-03T10:08:51;101205.25;;;25.53;51.91
60437;BME280;46289;51.992;4.498;2022-09-03T10:11:23;101207.75;;;25.58;52.50
60437;BME280;46289;51.992;4.498;2022-09-03T10:13:54;101207.75;;;25.98;52.66
60437;BME280;46289;51.992;4.498;2022-09-03T10:16:26;101204.97;;;25.81;51.37
60437;BME280;46289;51.992;4.498;2022-09-03T10:18:59;101205.84;;;25.82;50.25
60437;BME280;46289;51.992;4.498;2022-09-03T10:21:38;101205.56;;;26.06;50.96
60437;BME280;46289;51.992;4.498;2022-09-03T10:24:31;101206.81;;;25.99;51.44
60437;BME280;46289;51.992;4.498;2022-09-03T10:27:12;101208.66;;;25.79;52.08
60437;BME280;46289;51.992;4.498;2022-09-03T10:29:43;101207.16;;;25.92;51.23
60437;BME280;46289;51.992;4.498;2022-09-03T10:32:26;101199.97;;;26.31;50.64
60437;BME280;46289;51.992;4.498;2022-09-03T10:35:13;101198.19;;;26.30;50.54
60437;BME280;46289;51.992;4.498;2022-09-03T10:37:52;101213.00;;;26.20;50.56
60437;BME280;46289;51.992;4.498;2022-09-03T10:40:31;101200.84;;;26.32;51.78
60437;BME280;46289;51.992;4.498;2022-09-03T10:43:25;101207.63;;;26.41;50.96
60437;BME280;46289;51.992;4.498;2022-09-03T10:46:02;101199.84;;;26.72;51.21
60437;BME280;46289;51.992;4.498;2022-09-03T10:48:49;101195.72;;;26.65;50.67
60437;BME280;46289;51.992;4.498;2022-09-03T10:51:29;101207.50;;;26.62;50.00
60437;BME280;46289;51.992;4.498;2022-09-03T10:54:19;101202.41;;;26.17;49.96
60437;BME280;46289;51.992;4.498;2022-09-03T10:56:59;101203.63;;;26.68;48.17
60437;BME280;46289;51.992;4.498;2022-09-03T10:59:44;101200.06;;;26.49;49.31
60437;BME280;46289;51.992;4.498;2022-09-03T11:02:31;101199.72;;;26.56;49.69
60437;BME280;46289;51.992;4.498;2022-09-03T11:05:11;101197.44;;;26.66;47.94
60437;BME280;46289;51.992;4.498;2022-09-03T11:07:45;101191.72;;;27.10;47.75
60437;BME280;46289;51.992;4.498;2022-09-03T11:10:20;101200.78;;;26.90;48.53
60437;BME280;46289;51.992;4.498;2022-09-03T11:13:02;101200.78;;;27.26;46.48
60437;BME280;46289;51.992;4.498;2022-09-03T11:15:44;101212.97;;;27.33;48.29
60437;BME280;46289;51.992;4.498;2022-09-03T11:18:20;101208.78;;;27.27;46.59
60437;BME280;46289;51.992;4.498;2022-09-03T11:20:54;101206.69;;;27.15;46.35
60437;BME280;46289;51.992;4.498;2022-09-03T11:23:40;101195.47;;;27.24;46.02
60437;BME280;46289;51.992;4.498;2022-09-03T11:26:16;101208.56;;;27.49;45.91
60437;BME280;46289;51.992;4.498;2022-09-03T11:28:53;101207.72;;;27.13;47.12
60437;BME280;46289;51.992;4.498;2022-09-03T11:31:41;101201.50;;;27.47;46.24
60437;BME280;46289;51.992;4.498;2022-09-03T11:34:25;101201.44;;;27.48;46.53
60437;BME280;46289;51.992;4.498;2022-09-03T11:37:06;;;;27.22;
60437;BME280;46289;51.992;4.498;2022-09-03T11:39:41;101198.56;;;27.34;46.19
60437;BME280;46289;51.992;4.498;2022-09-03T11:42:23;101200.59;;;27.65;45.87
60437;BME280;46289;51.992;4.498;2022-09-03T11:45:11;101194.00;;;27.53;45.19
60437;BME280;46289;51.992;4.498;2022-09-03T11:47:47;101196.41;;;27.59;45.88
60437;BME280;46289;51.992;4.498;2022-09-03T11:50:20;101185.44;;;27.80;45.72
60437;BME280;46289;51.992;4.498;2022-09-03T11:52:52;101182.66;;;27.81;46.33
60437;BME280;46289;51.992;4.498;2022-09-03T11:55:29;101184.41;;;27.48;45.66
60437;BME280;46289;51.992;4.498;2022-09-03T11:58:16;101184.47;;;27.46;46.40
60437;BME280;46289;51.992;4.498;2022-09-03T12:00:50;101177.28;;;27.64;45.36
60437;BME280;46289;51.992;4.498;2022-09-03T12:03:29;101179.59;;;27.72;45.74
60437;BME280;46289;51.992;4.498;2022-09-03T12:06:28;101186.63;;;27.91;44.34
60437;BME280;46289;51.992;4.498;2022-09-03T12:09:17;101179.25;;;28.11;44.09
60437;BME280;46289;51.992;4.498;2022-09-03T12:11:58;101177.50;;;28.10;43.26
60437;BME280;46289;51.992;4.498;2022-09-03T12:14:45;101182.81;;;28.11;43.59
60437;BME280;46289;51.992;4.498;2022-09-03T12:17:25;101178.91;;;28.50;43.57
60437;BME280;46289;51.992;4.498;2022-09-03T12:20:11;101183.13;;;28.22;43.02
60437;BME280;46289;51.992;4.498;2022-09-03T12:22:41;101183.34;;;28.02;43.12
60437;BME280;46289;51.992;4.498;2022-09-03T12:25:14;101185.19;;;28.17;43.56
60437;BME280;46289;51.992;4.498;2022-09-03T12:27:45;101181.06;;;28.27;43.49
60437;BME280;46289;51.992;4.498;2022-09-03T12:30:17;101175.28;;;28.18;42.88
60437;BME280;46289;51.992;4.498;2022-09-03T12:32:50;101170.81;;;28.17;42.76
60437;BME280;46289;51.992;4.498;2022-09-03T12:35:36;101173.78;;;28.45;42.44
60437;BME280;46289;51.992;4.498;2022-09-03T12:38:27;101172.81;;;28.30;42.04
60437;BME280;46289;51.992;4.498;2022-09-03T12:41:25;101168.63;;;28.41;42.95
60437;BME280;46289;51.992;4.498;2022-09-03T12:44:01;101168.47;;;28.59;41.84
60437;BME280;46289;51.992;4.498;2022-09-03T12:46:32;101173.00;;;28.59;42.05
60437;BME280;46289;51.992;4.498;2022-09-03T12:49:05;101165.25;;;28.53;42.13
60437;BME280;46289;51.992;4.498;2022-09-03T12:52:06;101173.25;;;28.54;42.47
60437;BME280;46289;51.992;4.498;2022-09-03T12:54:42;101160.97;;;28.49;41.55
60437;BME280;46289;51.992;4.498;2022-09-03T12:57:20;101161.84;;;28.81;41.73
60437;BME280;46289;51.992;4.498;2022-09-03T12:59:55;101161.63;;;28.85;41.66
60437;BME280;46289;51.992;4.498;2022-09-03T13:02:29;101165.50;;;28.32;41.98
60437;BME280;46289;51.992;4.498;2022-09-03T13:05:10;101168.91;;;28.68;42.17
60437;BME280;46289;51.992;4.498;2022-09-03T13:07:48;101169.16;;;28.31;42.16
60437;BME280;46289;51.992;4.498;2022-09-03T13:10:25;101162.47;;;28.70;41.62
60437;BME280;46289;51.992;4.498;2022-09-03T13:13:06;101168.22;;;28.95;41.87
60437;BME280;46289;51.992;4.498;2022-09-03T13:15:37;101164.81;;;28.45;42.10
60437;BME280;46289;51.992;4.498;2022-09-03T13:18:16;101159.84;;;28.53;41.91
60437;BME280;46289;51.992;4.498;2022-09-03T13:21:00;101168.06;;;28.83;42.17
60437;BME280;46289;51.992;4.498;2022-09-03T13:23:53;101159.78;;;29.02;41.59
60437;BME280;46289;51.992;4.498;2022-09-03T13:26:33;101160.47;;;29.05;41.97
60437;BME280;46289;51.992;4.498;2022-09-03T13:29:27;101163.47;;;29.15;40.92
60437;BME280;46289;51.992;4.498;2022-09-03T13:32:09;101165.44;;;28.81;40.87
60437;BME280;46289;51.992;4.498;2022-09-03T13:34:48;101159.94;;;28.99;40.91